createdAt,value
2022-11-13T00:00:11.026Z,31.02
2022-11-13T00:00:33.285Z,30.85
2022-11-13T00:00:56.266Z,31.27
2022-11-13T00:01:19.828Z,29.38
2022-11-13T00:01:41.707Z,31.63
2022-11-13T00:02:03.869Z,31.45
2022-11-13T00:02:25.638Z,30.35
2022-11-13T00:02:47.462Z,30.95
2022-11-13T00:03:09.349Z,30.02
2022-11-13T00:03:31.149Z,29.33
2022-11-13T00:03:52.898Z,29.13
2022-11-13T00:04:15.130Z,29.27
2022-11-13T00:04:36.853Z,32.78
2022-11-13T00:04:58.974Z,33.95
2022-11-13T00:05:21.130Z,31.23
2022-11-13T00:05:42.932Z,29.85
2022-11-13T00:06:05.316Z,30.50
2022-11-13T00:06:27.826Z,31.77
2022-11-13T00:06:52.509Z,31.48
2022-11-13T00:07:17.364Z,30.02
2022-11-13T00:07:39.546Z,29.85
2022-11-13T00:08:01.478Z,30.50
2022-11-13T00:08:23.259Z,30.92
2022-11-13T00:08:46.277Z,29.42
2022-11-13T00:09:12.437Z,29.38
2022-11-13T00:09:34.195Z,29.45
2022-11-13T00:09:55.990Z,31.00
2022-11-13T00:10:17.864Z,31.08
2022-11-13T00:10:39.786Z,30.27
2022-11-13T00:11:03.934Z,31.80
2022-11-13T00:11:25.738Z,32.97
2022-11-13T00:11:47.535Z,32.72
2022-11-13T00:12:09.401Z,32.08
2022-11-13T00:12:31.190Z,32.67
2022-11-13T00:12:54.122Z,32.83
2022-11-13T00:13:15.884Z,31.90
2022-11-13T00:13:37.713Z,31.55
2022-11-13T00:13:59.468Z,34.38
2022-11-13T00:14:21.747Z,38.38
2022-11-13T00:14:44.431Z,35.17
2022-11-13T00:15:06.935Z,35.15
2022-11-13T00:15:28.975Z,32.95
2022-11-13T00:15:57.639Z,32.55
2022-11-13T00:16:21.259Z,33.13
2022-11-13T00:16:43.371Z,32.45
2022-11-13T00:17:05.161Z,32.28
2022-11-13T00:17:28.555Z,32.03
2022-11-13T00:17:50.689Z,31.85
2022-11-13T00:18:12.422Z,30.35
2022-11-13T00:18:35.888Z,31.77
2022-11-13T00:18:57.646Z,31.27
2022-11-13T00:19:19.781Z,29.95
2022-11-13T00:19:41.544Z,31.40
2022-11-13T00:20:04.520Z,31.80
2022-11-13T00:20:26.275Z,31.70
2022-11-13T00:20:48.008Z,31.95
2022-11-13T00:21:17.085Z,31.65
2022-11-13T00:21:39.222Z,36.55
2022-11-13T00:22:01.009Z,43.00
2022-11-13T00:22:22.779Z,37.13
2022-11-13T00:22:44.977Z,31.35
2022-11-13T00:23:06.720Z,30.90
2022-11-13T00:23:28.484Z,31.42
2022-11-13T00:23:52.172Z,31.73
2022-11-13T00:24:13.886Z,34.63
2022-11-13T00:24:35.648Z,33.33
2022-11-13T00:24:57.820Z,33.30
2022-11-13T00:25:19.574Z,33.33
2022-11-13T00:25:41.313Z,32.05
2022-11-13T00:26:15.902Z,32.78
2022-11-13T00:26:39.651Z,32.28
2022-11-13T00:27:01.375Z,32.53
2022-11-13T00:27:23.114Z,35.85
2022-11-13T00:27:44.854Z,35.53
2022-11-13T00:28:06.619Z,37.88
2022-11-13T00:28:29.095Z,37.33
2022-11-13T00:28:56.262Z,34.70
2022-11-13T00:29:18.143Z,33.55
2022-11-13T00:29:40.727Z,33.03
2022-11-13T00:30:02.646Z,33.17
2022-11-13T00:30:24.767Z,33.30
2022-11-13T00:30:46.721Z,33.08
2022-11-13T00:31:09.769Z,32.70
2022-11-13T00:31:32.054Z,32.53
2022-11-13T00:31:53.787Z,32.92
2022-11-13T00:32:15.554Z,36.72
2022-11-13T00:32:37.956Z,34.58
2022-11-13T00:33:00.099Z,34.33
2022-11-13T00:33:45.188Z,33.72
2022-11-13T00:34:33.209Z,34.05
2022-11-13T00:34:49.558Z,39.58
2022-11-13T00:35:11.327Z,42.20
2022-11-13T00:35:33.884Z,35.10
2022-11-13T00:36:12.814Z,33.42
2022-11-13T00:36:34.985Z,33.38
2022-11-13T00:36:57.269Z,32.95
2022-11-13T00:37:19.162Z,34.65
2022-11-13T00:37:40.964Z,34.33
2022-11-13T00:38:03.107Z,34.08
2022-11-13T00:38:25.441Z,33.20
2022-11-13T00:38:47.438Z,33.45
2022-11-13T00:39:09.852Z,33.13
2022-11-13T00:39:31.613Z,32.83
2022-11-13T00:39:58.431Z,34.10
2022-11-13T00:40:21.339Z,35.88
2022-11-13T00:40:43.379Z,34.88
2022-11-13T00:41:05.235Z,34.92
2022-11-13T00:41:29.710Z,35.08
2022-11-13T00:41:51.424Z,34.90
2022-11-13T00:42:13.188Z,35.53
2022-11-13T00:42:36.621Z,35.45
2022-11-13T00:43:00.225Z,34.35
2022-11-13T00:43:22.231Z,34.22
2022-11-13T00:43:44.263Z,34.00
2022-11-13T00:44:06.150Z,34.00
2022-11-13T00:44:27.874Z,34.10
2022-11-13T00:44:49.742Z,33.35
2022-11-13T00:45:11.562Z,33.25
2022-11-13T00:45:33.318Z,34.40
2022-11-13T00:45:55.497Z,33.92
2022-11-13T00:46:17.302Z,35.42
2022-11-13T00:46:39.442Z,39.80
2022-11-13T00:47:01.241Z,36.90
2022-11-13T00:47:23.014Z,38.50
2022-11-13T00:47:44.770Z,39.88
2022-11-13T00:48:06.658Z,37.22
2022-11-13T00:48:29.050Z,36.63
2022-11-13T00:48:51.161Z,35.05
2022-11-13T00:49:13.315Z,35.50
2022-11-13T00:49:35.536Z,38.13
2022-11-13T00:49:57.667Z,36.70
2022-11-13T00:50:19.543Z,34.75
2022-11-13T00:50:41.360Z,35.83
2022-11-13T00:51:04.079Z,36.88
2022-11-13T00:51:25.957Z,37.60
2022-11-13T00:51:48.150Z,36.88
2022-11-13T00:52:10.003Z,36.58
2022-11-13T00:52:31.792Z,37.40
2022-11-13T00:52:53.576Z,39.60
2022-11-13T00:53:18.247Z,36.38
2022-11-13T00:53:40.201Z,37.28
2022-11-13T00:54:02.078Z,38.88
2022-11-13T00:54:23.817Z,36.95
2022-11-13T00:54:45.951Z,37.92
2022-11-13T00:55:07.867Z,36.70
2022-11-13T00:55:30.319Z,36.10
2022-11-13T00:55:52.291Z,37.03
2022-11-13T00:56:14.144Z,36.75
2022-11-13T00:56:35.897Z,37.03
2022-11-13T00:56:57.714Z,38.67
2022-11-13T00:57:19.877Z,37.35
2022-11-13T00:57:41.837Z,38.13
2022-11-13T00:58:04.905Z,37.00
2022-11-13T00:58:27.629Z,38.30
2022-11-13T00:58:49.814Z,38.83
2022-11-13T00:59:11.912Z,37.90
2022-11-13T00:59:34.123Z,37.88
2022-11-13T00:59:55.839Z,40.35
2022-11-13T01:00:18.054Z,40.33
2022-11-13T01:00:40.661Z,39.15
2022-11-13T01:01:11.935Z,38.65
2022-11-13T01:01:33.888Z,38.08
2022-11-13T01:01:55.740Z,38.00
2022-11-13T01:02:17.550Z,40.45
2022-11-13T01:02:39.307Z,41.38
2022-11-13T01:03:01.176Z,41.35
2022-11-13T01:03:23.016Z,39.78
2022-11-13T01:03:45.055Z,39.67
2022-11-13T01:04:06.826Z,39.00
2022-11-13T01:04:29.392Z,39.60
2022-11-13T01:04:51.526Z,39.25
2022-11-13T01:05:13.421Z,39.50
2022-11-13T01:05:42.712Z,38.63
2022-11-13T01:06:11.762Z,37.78
2022-11-13T01:06:33.555Z,38.55
2022-11-13T01:06:55.711Z,37.53
2022-11-13T01:07:17.646Z,38.28
2022-11-13T01:07:39.462Z,39.83
2022-11-13T01:08:01.623Z,39.17
2022-11-13T01:08:23.392Z,39.60
2022-11-13T01:08:45.725Z,38.78
2022-11-13T01:09:07.493Z,40.22
2022-11-13T01:09:29.647Z,41.60
2022-11-13T01:09:51.993Z,41.20
2022-11-13T01:10:13.923Z,41.20
2022-11-13T01:10:44.818Z,40.75
2022-11-13T01:11:11.234Z,39.80
2022-11-13T01:11:33.472Z,40.70
2022-11-13T01:11:55.615Z,41.55
2022-11-13T01:12:17.463Z,41.65
2022-11-13T01:12:39.206Z,41.65
2022-11-13T01:13:01.224Z,41.78
2022-11-13T01:13:22.986Z,39.63
2022-11-13T01:13:46.924Z,39.88
2022-11-13T01:14:09.348Z,42.40
2022-11-13T01:14:31.178Z,41.20
2022-11-13T01:14:53.040Z,40.80
2022-11-13T01:15:15.192Z,39.60
2022-11-13T01:15:40.189Z,41.40
2022-11-13T01:16:06.446Z,40.17
2022-11-13T01:16:29.013Z,40.45
2022-11-13T01:16:51.160Z,39.33
2022-11-13T01:17:12.965Z,40.70
2022-11-13T01:17:35.029Z,40.50
2022-11-13T01:17:56.861Z,41.30
2022-11-13T01:18:18.720Z,40.67
2022-11-13T01:18:43.937Z,40.75
2022-11-13T01:19:05.691Z,41.80
2022-11-13T01:19:27.871Z,41.65
2022-11-13T01:19:49.991Z,40.58
2022-11-13T01:20:12.142Z,40.05
2022-11-13T01:20:34.355Z,40.08
2022-11-13T01:21:06.674Z,39.42
2022-11-13T01:21:28.824Z,39.33
2022-11-13T01:21:50.956Z,40.17
2022-11-13T01:22:12.722Z,40.65
2022-11-13T01:22:34.456Z,40.00
2022-11-13T01:22:56.582Z,39.78
2022-11-13T01:23:18.309Z,39.95
2022-11-13T01:23:40.427Z,40.22
2022-11-13T01:24:02.266Z,40.58
2022-11-13T01:24:24.085Z,39.83
2022-11-13T01:24:45.873Z,39.90
2022-11-13T01:25:07.929Z,40.10
2022-11-13T01:25:30.501Z,40.17
2022-11-13T01:25:52.304Z,40.85
2022-11-13T01:26:14.396Z,39.97
2022-11-13T01:26:36.169Z,39.13
2022-11-13T01:26:57.893Z,39.63
2022-11-13T01:27:20.015Z,39.92
2022-11-13T01:27:42.233Z,40.30
2022-11-13T01:28:04.208Z,42.07
2022-11-13T01:28:26.227Z,41.22
2022-11-13T01:28:49.254Z,40.63
2022-11-13T01:29:12.601Z,39.88
2022-11-13T01:29:34.801Z,39.95
2022-11-13T01:29:56.536Z,39.45
2022-11-13T01:30:18.761Z,39.70
2022-11-13T01:30:40.897Z,40.88
2022-11-13T01:31:08.766Z,41.08
2022-11-13T01:31:31.519Z,39.20
2022-11-13T01:31:53.246Z,39.80
2022-11-13T01:32:14.972Z,40.67
2022-11-13T01:32:37.005Z,40.53
2022-11-13T01:32:58.785Z,39.92
2022-11-13T01:33:20.904Z,40.53
2022-11-13T01:33:44.016Z,40.35
2022-11-13T01:34:06.226Z,41.55
2022-11-13T01:34:27.946Z,40.40
2022-11-13T01:34:49.708Z,39.90
2022-11-13T01:35:11.448Z,40.42
2022-11-13T01:35:33.180Z,41.08
2022-11-13T01:36:00.958Z,39.97
2022-11-13T01:36:24.918Z,39.65
2022-11-13T01:36:47.013Z,40.33
2022-11-13T01:37:09.215Z,38.87
2022-11-13T01:37:30.948Z,39.67
2022-11-13T01:37:53.069Z,40.85
2022-11-13T01:38:14.888Z,40.45
2022-11-13T01:38:37.627Z,39.63
2022-11-13T01:39:00.041Z,40.22
2022-11-13T01:39:22.184Z,39.92
2022-11-13T01:39:44.313Z,39.10
2022-11-13T01:40:06.601Z,39.20
2022-11-13T01:40:28.367Z,39.85
2022-11-13T01:40:50.085Z,39.22
2022-11-13T01:41:27.739Z,38.78
2022-11-13T01:41:49.502Z,39.75
2022-11-13T01:42:11.340Z,38.95
2022-11-13T01:42:33.959Z,39.80
2022-11-13T01:42:55.733Z,40.45
2022-11-13T01:43:25.217Z,40.55
2022-11-13T01:43:47.262Z,39.83
2022-11-13T01:44:16.236Z,41.30
2022-11-13T01:44:47.069Z,39.20
2022-11-13T01:45:46.287Z,38.65
2022-11-13T01:46:24.851Z,40.05
2022-11-13T01:46:51.518Z,39.63
2022-11-13T01:47:13.464Z,39.38
2022-11-13T01:47:36.085Z,39.38
2022-11-13T01:47:57.859Z,40.42
2022-11-13T01:48:20.040Z,39.03
2022-11-13T01:48:56.102Z,39.97
2022-11-13T01:49:26.506Z,39.35
2022-11-13T01:49:49.498Z,38.25
2022-11-13T01:50:14.978Z,38.15
2022-11-13T01:50:37.222Z,38.63
2022-11-13T01:50:59.501Z,39.63
2022-11-13T01:51:50.163Z,39.30
2022-11-13T01:52:20.455Z,39.28
2022-11-13T01:52:42.926Z,39.88
2022-11-13T01:53:05.161Z,39.03
2022-11-13T01:53:27.873Z,38.20
2022-11-13T01:53:49.694Z,37.55
2022-11-13T01:54:15.893Z,38.08
2022-11-13T01:54:41.567Z,37.03
2022-11-13T01:55:14.021Z,37.90
2022-11-13T01:55:36.170Z,38.55
2022-11-13T01:55:58.047Z,38.15
2022-11-13T01:56:20.286Z,37.70
2022-11-13T01:56:42.200Z,39.03
2022-11-13T01:57:04.544Z,39.60
2022-11-13T01:57:26.503Z,39.63
2022-11-13T01:57:48.475Z,37.72
2022-11-13T01:58:11.464Z,36.90
2022-11-13T01:58:33.613Z,37.22
2022-11-13T01:59:04.470Z,38.50
2022-11-13T01:59:27.991Z,37.50
2022-11-13T01:59:58.591Z,37.78
2022-11-13T02:00:20.565Z,36.75
2022-11-13T02:00:42.727Z,37.13
2022-11-13T02:01:04.493Z,38.60
2022-11-13T02:01:26.729Z,37.75
2022-11-13T02:01:49.195Z,36.45
2022-11-13T02:02:11.047Z,35.75
2022-11-13T02:02:33.030Z,36.17
2022-11-13T02:02:54.886Z,36.33
2022-11-13T02:03:16.741Z,36.50
2022-11-13T02:03:38.764Z,35.60
2022-11-13T02:04:00.982Z,35.58
2022-11-13T02:04:23.605Z,36.03
2022-11-13T02:04:46.402Z,35.50
2022-11-13T02:05:09.245Z,35.42
2022-11-13T02:05:31.184Z,35.83
2022-11-13T02:05:54.593Z,35.45
2022-11-13T02:06:17.097Z,34.33
2022-11-13T02:06:52.091Z,34.67
2022-11-13T02:07:16.663Z,35.35
2022-11-13T02:07:38.971Z,35.17
2022-11-13T02:08:01.244Z,34.80
2022-11-13T02:08:23.430Z,35.42
2022-11-13T02:08:45.535Z,35.28
2022-11-13T02:09:08.282Z,35.25
2022-11-13T02:09:36.513Z,34.13
2022-11-13T02:09:58.913Z,33.50
2022-11-13T02:10:21.108Z,33.75
2022-11-13T02:10:43.492Z,34.25
2022-11-13T02:11:05.370Z,34.67
2022-11-13T02:11:27.390Z,34.60
2022-11-13T02:11:49.469Z,33.63
2022-11-13T02:12:14.090Z,33.88
2022-11-13T02:12:40.818Z,33.42
2022-11-13T02:13:03.212Z,33.50
2022-11-13T02:13:25.854Z,33.70
2022-11-13T02:13:48.142Z,33.45
2022-11-13T02:14:11.287Z,34.22
2022-11-13T02:14:34.742Z,33.88
2022-11-13T02:14:59.795Z,34.08
2022-11-13T02:15:25.251Z,34.15
2022-11-13T02:15:48.834Z,33.60
2022-11-13T02:16:11.382Z,32.85
2022-11-13T02:16:34.631Z,32.60
2022-11-13T02:17:00.743Z,33.63
2022-11-13T02:17:31.075Z,33.30
2022-11-13T02:17:56.655Z,33.35
2022-11-13T02:18:21.091Z,32.97
2022-11-13T02:18:43.381Z,33.08
2022-11-13T02:19:13.258Z,33.05
2022-11-13T02:19:37.571Z,34.28
2022-11-13T02:20:02.227Z,33.33
2022-11-13T02:20:46.060Z,31.88
2022-11-13T02:21:07.747Z,31.52
2022-11-13T02:21:45.216Z,31.38
2022-11-13T02:22:46.704Z,32.97
2022-11-13T02:23:24.912Z,32.05
2022-11-13T02:23:51.524Z,33.05
2022-11-13T02:24:16.786Z,31.95
2022-11-13T02:24:45.287Z,31.48
2022-11-13T02:25:10.281Z,32.47
2022-11-13T02:25:33.293Z,32.85
2022-11-13T02:25:55.210Z,33.15
2022-11-13T02:26:23.919Z,32.67
2022-11-13T02:26:45.787Z,32.28
2022-11-13T02:27:13.066Z,33.15
2022-11-13T02:27:37.607Z,34.00
2022-11-13T02:28:00.079Z,32.13
2022-11-13T02:28:22.388Z,32.03
2022-11-13T02:28:44.147Z,33.75
2022-11-13T02:29:06.278Z,33.53
2022-11-13T02:29:28.041Z,31.27
2022-11-13T02:29:49.868Z,31.13
2022-11-13T02:30:20.961Z,31.58
2022-11-13T02:30:55.861Z,31.35
2022-11-13T02:31:17.987Z,32.05
2022-11-13T02:31:40.133Z,32.45
2022-11-13T02:32:01.989Z,31.08
2022-11-13T02:32:23.766Z,32.17
2022-11-13T02:32:47.627Z,32.05
2022-11-13T02:33:30.033Z,32.13
2022-11-13T02:33:52.176Z,31.30
2022-11-13T02:34:14.325Z,31.05
2022-11-13T02:34:36.084Z,30.20
2022-11-13T02:34:58.213Z,30.48
2022-11-13T02:35:26.755Z,31.42
2022-11-13T02:35:48.559Z,31.77
2022-11-13T02:36:11.628Z,30.90
2022-11-13T02:36:34.208Z,30.95
2022-11-13T02:36:56.041Z,30.60
2022-11-13T02:37:17.815Z,29.77
2022-11-13T02:37:39.600Z,30.50
2022-11-13T02:38:03.032Z,30.65
2022-11-13T02:38:25.004Z,28.90
2022-11-13T02:38:47.874Z,30.13
2022-11-13T02:39:11.432Z,30.25
2022-11-13T02:39:33.588Z,30.33
2022-11-13T02:39:55.717Z,30.58
2022-11-13T02:40:18.401Z,30.20
2022-11-13T02:40:40.161Z,28.65
2022-11-13T02:41:01.943Z,29.95
2022-11-13T02:41:23.689Z,29.63
2022-11-13T02:41:45.840Z,30.88
2022-11-13T02:42:08.047Z,29.85
2022-11-13T02:42:29.754Z,29.80
2022-11-13T02:42:51.872Z,29.17
2022-11-13T02:43:14.027Z,29.13
2022-11-13T02:43:36.157Z,30.25
2022-11-13T02:43:58.050Z,30.27
2022-11-13T02:44:19.887Z,29.63
2022-11-13T02:44:41.644Z,30.05
2022-11-13T02:45:04.102Z,29.98
2022-11-13T02:45:25.883Z,30.00
2022-11-13T02:45:47.650Z,29.13
2022-11-13T02:46:09.440Z,30.02
2022-11-13T02:46:31.544Z,29.88
2022-11-13T02:46:53.303Z,29.88
2022-11-13T02:47:15.410Z,31.23
2022-11-13T02:47:37.258Z,30.05
2022-11-13T02:48:01.731Z,29.85
2022-11-13T02:48:23.479Z,29.90
2022-11-13T02:48:45.224Z,29.25
2022-11-13T02:49:07.693Z,30.08
2022-11-13T02:49:29.803Z,30.52
2022-11-13T02:49:51.516Z,29.35
2022-11-13T02:50:13.579Z,29.15
2022-11-13T02:50:37.433Z,30.13
2022-11-13T02:50:59.592Z,30.48
2022-11-13T02:51:21.385Z,29.65
2022-11-13T02:51:43.564Z,30.85
2022-11-13T02:52:05.357Z,30.10
2022-11-13T02:52:27.372Z,28.95
2022-11-13T02:52:49.190Z,29.13
2022-11-13T02:53:11.016Z,29.90
2022-11-13T02:53:33.192Z,29.50
2022-11-13T02:53:55.566Z,30.15
2022-11-13T02:54:17.713Z,30.05
2022-11-13T02:54:39.615Z,30.35
2022-11-13T02:55:01.399Z,30.15
2022-11-13T02:55:23.426Z,30.58
2022-11-13T02:55:45.537Z,30.40
2022-11-13T02:56:07.862Z,30.35
2022-11-13T02:56:30.020Z,30.70
2022-11-13T02:56:51.798Z,30.92
2022-11-13T02:57:13.535Z,30.65
2022-11-13T02:57:35.327Z,30.48
2022-11-13T02:57:57.083Z,30.42
2022-11-13T02:58:18.910Z,30.63
2022-11-13T02:58:40.667Z,30.73
2022-11-13T02:59:02.454Z,31.77
2022-11-13T02:59:24.167Z,30.83
2022-11-13T02:59:45.923Z,30.25
2022-11-13T03:00:13.561Z,30.08
2022-11-13T03:00:36.319Z,30.90
2022-11-13T03:00:58.076Z,30.48
2022-11-13T03:01:20.285Z,30.27
2022-11-13T03:01:42.124Z,30.67
2022-11-13T03:02:04.069Z,30.60
2022-11-13T03:02:25.859Z,30.77
2022-11-13T03:02:47.743Z,31.88
2022-11-13T03:03:09.544Z,31.75
2022-11-13T03:03:56.538Z,31.48
2022-11-13T03:04:13.444Z,30.98
2022-11-13T03:05:05.318Z,31.88
2022-11-13T03:05:17.119Z,31.48
2022-11-13T03:05:38.874Z,32.00
2022-11-13T03:06:00.716Z,31.95
2022-11-13T03:06:22.476Z,32.33
2022-11-13T03:06:44.275Z,31.40
2022-11-13T03:07:06.120Z,31.38
2022-11-13T03:07:28.260Z,31.95
2022-11-13T03:07:50.046Z,33.42
2022-11-13T03:08:12.157Z,33.80
2022-11-13T03:08:34.838Z,32.55
2022-11-13T03:08:57.195Z,32.10
2022-11-13T03:09:19.451Z,32.58
2022-11-13T03:09:42.109Z,32.65
2022-11-13T03:10:04.529Z,34.53
2022-11-13T03:10:26.283Z,32.80
2022-11-13T03:10:48.032Z,32.75
2022-11-13T03:11:10.916Z,31.80
2022-11-13T03:11:32.662Z,31.80
2022-11-13T03:11:54.484Z,32.75
2022-11-13T03:12:16.646Z,32.75
2022-11-13T03:12:39.181Z,32.03
2022-11-13T03:13:00.935Z,33.05
2022-11-13T03:13:22.758Z,32.30
2022-11-13T03:13:44.544Z,32.72
2022-11-13T03:14:06.514Z,33.15
2022-11-13T03:14:28.291Z,33.92
2022-11-13T03:14:50.030Z,33.28
2022-11-13T03:15:12.483Z,32.75
2022-11-13T03:15:34.998Z,32.55
2022-11-13T03:15:57.127Z,32.33
2022-11-13T03:16:18.930Z,32.25
2022-11-13T03:16:40.642Z,33.25
2022-11-13T03:17:02.755Z,33.53
2022-11-13T03:17:24.576Z,31.98
2022-11-13T03:17:46.287Z,33.20
2022-11-13T03:18:08.891Z,33.45
2022-11-13T03:18:30.912Z,32.85
2022-11-13T03:18:52.685Z,32.10
2022-11-13T03:19:15.071Z,32.33
2022-11-13T03:19:36.993Z,31.90
2022-11-13T03:19:59.516Z,32.03
2022-11-13T03:20:21.309Z,32.85
2022-11-13T03:20:44.045Z,33.03
2022-11-13T03:21:11.066Z,31.63
2022-11-13T03:21:32.882Z,31.33
2022-11-13T03:21:55.007Z,31.92
2022-11-13T03:22:16.738Z,32.28
2022-11-13T03:22:38.863Z,32.17
2022-11-13T03:23:00.613Z,31.55
2022-11-13T03:23:22.361Z,31.15
2022-11-13T03:23:47.121Z,29.90
2022-11-13T03:24:08.883Z,31.38
2022-11-13T03:24:31.058Z,31.42
2022-11-13T03:24:52.818Z,31.88
2022-11-13T03:25:14.716Z,31.85
2022-11-13T03:25:36.438Z,30.98
2022-11-13T03:26:06.222Z,29.20
2022-11-13T03:26:28.368Z,30.48
2022-11-13T03:26:50.491Z,29.75
2022-11-13T03:27:12.606Z,30.77
2022-11-13T03:27:34.371Z,28.80
2022-11-13T03:27:56.161Z,28.92
2022-11-13T03:28:17.911Z,30.58
2022-11-13T03:28:39.652Z,31.17
2022-11-13T03:29:01.372Z,30.83
2022-11-13T03:29:23.146Z,31.20
2022-11-13T03:29:44.850Z,30.85
2022-11-13T03:30:07.341Z,30.70
2022-11-13T03:30:29.097Z,31.35
2022-11-13T03:30:50.827Z,31.50
2022-11-13T03:31:12.934Z,30.08
2022-11-13T03:31:34.666Z,31.20
2022-11-13T03:31:56.888Z,29.25
2022-11-13T03:32:18.871Z,29.90
2022-11-13T03:32:40.675Z,30.60
2022-11-13T03:33:02.440Z,29.67
2022-11-13T03:33:25.386Z,29.35
2022-11-13T03:33:47.436Z,31.00
2022-11-13T03:34:09.664Z,30.05
2022-11-13T03:34:31.468Z,30.35
2022-11-13T03:34:53.372Z,30.52
2022-11-13T03:35:15.137Z,29.83
2022-11-13T03:35:44.214Z,29.73
2022-11-13T03:36:08.758Z,29.67
2022-11-13T03:36:30.520Z,29.58
2022-11-13T03:36:52.272Z,30.15
2022-11-13T03:37:14.428Z,29.90
2022-11-13T03:37:36.596Z,28.80
2022-11-13T03:37:58.320Z,28.25
2022-11-13T03:38:20.114Z,29.10
2022-11-13T03:38:41.857Z,28.23
2022-11-13T03:39:03.998Z,28.77
2022-11-13T03:39:25.842Z,27.88
2022-11-13T03:39:47.613Z,28.10
2022-11-13T03:40:09.740Z,28.17
2022-11-13T03:40:31.445Z,27.65
2022-11-13T03:40:53.609Z,27.40
2022-11-13T03:41:15.424Z,28.35
2022-11-13T03:41:37.170Z,28.98
2022-11-13T03:41:59.326Z,29.63
2022-11-13T03:42:21.040Z,29.05
2022-11-13T03:42:42.873Z,28.13
2022-11-13T03:43:04.603Z,29.05
2022-11-13T03:43:26.791Z,29.08
2022-11-13T03:43:48.577Z,28.45
2022-11-13T03:44:10.336Z,28.48
2022-11-13T03:44:32.082Z,29.33
2022-11-13T03:44:53.929Z,29.48
2022-11-13T03:45:15.774Z,30.15
2022-11-13T03:45:37.559Z,28.85
2022-11-13T03:45:59.342Z,29.58
2022-11-13T03:46:21.537Z,28.27
2022-11-13T03:46:43.309Z,28.58
2022-11-13T03:47:05.069Z,28.67
2022-11-13T03:47:26.833Z,28.00
2022-11-13T03:47:49.410Z,28.02
2022-11-13T03:48:11.327Z,29.02
2022-11-13T03:48:33.517Z,28.48
2022-11-13T03:48:55.360Z,28.08
2022-11-13T03:49:17.094Z,28.33
2022-11-13T03:49:39.247Z,28.75
2022-11-13T03:50:01.356Z,27.95
2022-11-13T03:50:23.453Z,27.92
2022-11-13T03:50:50.721Z,28.38
2022-11-13T03:51:12.539Z,28.35
2022-11-13T03:51:34.691Z,28.42
2022-11-13T03:51:56.807Z,28.73
2022-11-13T03:52:19.181Z,28.48
2022-11-13T03:52:40.909Z,28.88
2022-11-13T03:53:03.059Z,27.33
2022-11-13T03:53:24.924Z,28.20
2022-11-13T03:53:46.675Z,28.85
2022-11-13T03:54:08.454Z,28.05
2022-11-13T03:54:30.242Z,28.35
2022-11-13T03:54:52.051Z,28.42
2022-11-13T03:55:13.816Z,27.35
2022-11-13T03:55:35.631Z,27.92
2022-11-13T03:55:57.867Z,27.92
2022-11-13T03:56:19.639Z,28.25
2022-11-13T03:56:41.383Z,27.85
2022-11-13T03:57:03.274Z,29.02
2022-11-13T03:57:25.038Z,29.05
2022-11-13T03:57:49.671Z,28.30
2022-11-13T03:58:11.661Z,28.83
2022-11-13T03:58:35.405Z,28.42
2022-11-13T03:59:00.291Z,28.85
2022-11-13T03:59:22.417Z,27.98
2022-11-13T03:59:44.215Z,28.30
2022-11-13T04:00:07.097Z,28.55
2022-11-13T04:00:30.237Z,28.15
2022-11-13T04:00:54.406Z,28.38
2022-11-13T04:01:16.641Z,27.08
2022-11-13T04:01:38.848Z,28.13
2022-11-13T04:02:00.640Z,28.27
2022-11-13T04:02:22.450Z,28.05
2022-11-13T04:02:44.256Z,27.10
2022-11-13T04:03:06.011Z,27.77
2022-11-13T04:03:27.821Z,27.42
2022-11-13T04:03:49.584Z,27.35
2022-11-13T04:04:11.502Z,28.42
2022-11-13T04:04:33.668Z,28.27
2022-11-13T04:04:55.828Z,28.45
2022-11-13T04:05:22.627Z,28.35
2022-11-13T04:05:44.831Z,29.00
2022-11-13T04:06:06.683Z,28.95
2022-11-13T04:06:28.401Z,28.23
2022-11-13T04:06:50.184Z,27.63
2022-11-13T04:07:11.963Z,28.67
2022-11-13T04:07:33.742Z,29.67
2022-11-13T04:07:55.582Z,28.92
2022-11-13T04:08:18.369Z,28.92
2022-11-13T04:08:40.604Z,29.05
2022-11-13T04:09:02.388Z,28.92
2022-11-13T04:09:25.037Z,29.63
2022-11-13T04:09:46.823Z,29.13
2022-11-13T04:10:08.910Z,27.27
2022-11-13T04:10:31.083Z,28.42
2022-11-13T04:10:52.832Z,28.95
2022-11-13T04:11:14.603Z,29.52
2022-11-13T04:11:36.361Z,28.75
2022-11-13T04:11:58.107Z,29.00
2022-11-13T04:12:19.859Z,28.13
2022-11-13T04:12:41.692Z,29.00
2022-11-13T04:13:03.496Z,29.67
2022-11-13T04:13:25.302Z,30.20
2022-11-13T04:13:47.133Z,29.13
2022-11-13T04:14:08.901Z,29.83
2022-11-13T04:14:31.057Z,29.63
2022-11-13T04:14:52.794Z,29.25
2022-11-13T04:15:14.658Z,29.58
2022-11-13T04:15:36.430Z,29.65
2022-11-13T04:15:58.153Z,30.13
2022-11-13T04:16:19.905Z,29.70
2022-11-13T04:16:42.080Z,29.23
2022-11-13T04:17:03.938Z,30.35
2022-11-13T04:17:25.673Z,29.40
2022-11-13T04:17:48.127Z,29.10
2022-11-13T04:18:09.893Z,29.48
2022-11-13T04:18:32.334Z,29.40
2022-11-13T04:18:54.761Z,30.17
2022-11-13T04:19:16.900Z,30.02
2022-11-13T04:19:39.071Z,29.90
2022-11-13T04:20:00.839Z,30.27
2022-11-13T04:20:23.095Z,29.52
2022-11-13T04:20:45.226Z,29.52
2022-11-13T04:21:07.026Z,28.88
2022-11-13T04:21:29.313Z,29.15
2022-11-13T04:21:51.027Z,30.52
2022-11-13T04:22:13.441Z,29.58
2022-11-13T04:22:35.185Z,29.80
2022-11-13T04:22:57.641Z,29.80
2022-11-13T04:23:19.381Z,30.75
2022-11-13T04:23:41.562Z,32.38
2022-11-13T04:24:03.577Z,31.02
2022-11-13T04:24:25.753Z,29.85
2022-11-13T04:24:47.464Z,29.95
2022-11-13T04:25:09.453Z,31.02
2022-11-13T04:25:31.219Z,30.50
2022-11-13T04:25:52.999Z,30.30
2022-11-13T04:26:14.763Z,30.17
2022-11-13T04:26:36.509Z,30.45
2022-11-13T04:26:58.697Z,29.52
2022-11-13T04:27:20.793Z,29.90
2022-11-13T04:27:42.615Z,29.38
2022-11-13T04:28:04.473Z,29.88
2022-11-13T04:28:26.494Z,29.42
2022-11-13T04:28:48.604Z,28.83
2022-11-13T04:29:10.391Z,29.23
2022-11-13T04:29:32.095Z,29.67
2022-11-13T04:29:53.909Z,29.13
2022-11-13T04:30:15.769Z,28.35
2022-11-13T04:30:37.989Z,28.48
2022-11-13T04:31:00.145Z,29.67
2022-11-13T04:31:21.944Z,29.35
2022-11-13T04:31:43.652Z,29.67
2022-11-13T04:32:05.733Z,29.23
2022-11-13T04:32:27.459Z,29.27
2022-11-13T04:32:49.566Z,27.38
2022-11-13T04:33:11.340Z,28.42
2022-11-13T04:33:33.125Z,28.85
2022-11-13T04:33:54.919Z,28.65
2022-11-13T04:34:17.103Z,28.45
2022-11-13T04:34:38.845Z,28.40
2022-11-13T04:35:01.020Z,27.75
2022-11-13T04:35:22.769Z,28.38
2022-11-13T04:35:45.922Z,28.60
2022-11-13T04:36:08.012Z,28.02
2022-11-13T04:36:29.797Z,26.55
2022-11-13T04:36:51.493Z,27.65
2022-11-13T04:37:13.603Z,27.90
2022-11-13T04:37:35.744Z,27.80
2022-11-13T04:37:57.446Z,27.77
2022-11-13T04:38:19.259Z,27.23
2022-11-13T04:38:41.009Z,27.55
2022-11-13T04:39:02.884Z,27.50
2022-11-13T04:39:24.726Z,27.58
2022-11-13T04:39:46.857Z,27.27
2022-11-13T04:40:09.531Z,26.55
2022-11-13T04:40:31.689Z,27.63
2022-11-13T04:41:13.377Z,28.35
2022-11-13T04:41:55.522Z,27.77
2022-11-13T04:42:36.448Z,28.20
2022-11-13T04:42:58.199Z,27.20
2022-11-13T04:43:20.361Z,26.63
2022-11-13T04:43:42.133Z,28.48
2022-11-13T04:44:03.920Z,27.20
2022-11-13T04:44:25.705Z,27.05
2022-11-13T04:44:47.444Z,27.70
2022-11-13T04:45:09.760Z,27.35
2022-11-13T04:45:32.025Z,27.70
2022-11-13T04:45:54.130Z,27.45
2022-11-13T04:46:15.936Z,27.48
2022-11-13T04:46:38.034Z,27.10
2022-11-13T04:46:59.810Z,26.92
2022-11-13T04:47:21.608Z,27.23
2022-11-13T04:47:44.393Z,26.55
2022-11-13T04:48:06.208Z,27.38
2022-11-13T04:48:28.193Z,27.75
2022-11-13T04:48:50.169Z,26.92
2022-11-13T04:49:12.304Z,27.25
2022-11-13T04:49:34.169Z,26.83
2022-11-13T04:49:55.935Z,27.48
2022-11-13T04:50:17.835Z,26.73
2022-11-13T04:50:39.949Z,26.52
2022-11-13T04:51:01.724Z,26.77
2022-11-13T04:51:23.532Z,27.85
2022-11-13T04:51:45.658Z,26.63
2022-11-13T04:52:07.492Z,27.55
2022-11-13T04:52:29.269Z,27.15
2022-11-13T04:52:51.127Z,27.38
2022-11-13T04:53:12.844Z,27.23
2022-11-13T04:53:34.785Z,28.00
2022-11-13T04:53:56.739Z,28.00
2022-11-13T04:54:18.512Z,27.25
2022-11-13T04:54:40.644Z,27.25
2022-11-13T04:55:02.785Z,27.48
2022-11-13T04:55:24.673Z,26.65
2022-11-13T04:55:46.519Z,27.42
2022-11-13T04:56:08.275Z,27.63
2022-11-13T04:56:30.414Z,28.00
2022-11-13T04:56:52.285Z,27.90